sensor_id;sensor_type;location;lat;lon;timestamp;pressure;altitude;pressure_sealevel;temperature;humidity
72950;BME280;64868;45.710;9.590;2022-12-18T00:02:02;99947.88;;;5.49;86.73
72950;BME280;64868;45.710;9.590;2022-12-18T00:04:29;99956.16;;;5.44;87.65
72950;BME280;64868;45.710;9.590;2022-12-18T00:06:57;99953.56;;;5.41;86.91
72950;BME280;64868;45.710;9.590;2022-12-18T00:09:25;99954.41;;;5.43;87.59
72950;BME280;64868;45.710;9.590;2022-12-18T00:11:53;99958.06;;;5.42;87.26
72950;BME280;64868;45.710;9.590;2022-12-18T00:14:20;99960.56;;;5.47;86.68
72950;BME280;64868;45.710;9.590;2022-12-18T00:16:46;99962.44;;;5.45;87.23
72950;BME280;64868;45.710;9.590;2022-12-18T00:19:13;99962.50;;;5.43;86.60
72950;BME280;64868;45.710;9.590;2022-12-18T00:21:41;99960.75;;;5.42;86.94
72950;BME280;64868;45.710;9.590;2022-12-18T00:24:09;99966.16;;;5.42;87.28
72950;BME280;64868;45.710;9.590;2022-12-18T00:26:36;99967.75;;;5.48;86.17
72950;BME280;64868;45.710;9.590;2022-12-18T00:29:22;99972.28;;;5.47;86.43
72950;BME280;64868;45.710;9.590;2022-12-18T00:31:47;99960.78;;;5.41;85.95
72950;BME280;64868;45.710;9.590;2022-12-18T00:34:13;99964.44;;;5.40;85.95
72950;BME280;64868;45.710;9.590;2022-12-18T00:36:39;99974.91;;;5.49;86.42
72950;BME280;64868;45.710;9.590;2022-12-18T00:39:05;99951.72;;;5.42;86.08
72950;BME280;64868;45.710;9.590;2022-12-18T00:41:30;99980.22;;;5.52;85.52
72950;BME280;64868;45.710;9.590;2022-12-18T00:44:16;99981.09;;;5.52;85.47
72950;BME280;64868;45.710;9.590;2022-12-18T00:46:43;99984.81;;;5.50;85.04
72950;BME280;64868;45.710;9.590;2022-12-18T00:49:09;99983.97;;;5.48;85.05
72950;BME280;64868;45.710;9.590;2022-12-18T00:51:35;99997.31;;;5.52;85.00
72950;BME280;64868;45.710;9.590;2022-12-18T00:54:00;99993.81;;;5.50;85.89
72950;BME280;64868;45.710;9.590;2022-12-18T00:56:26;100008.31;;;5.48;85.16
72950;BME280;64868;45.710;9.590;2022-12-18T00:58:52;100002.19;;;5.43;84.32
72950;BME280;64868;45.710;9.590;2022-12-18T01:01:17;100012.91;;;5.46;84.54
72950;BME280;64868;45.710;9.590;2022-12-18T01:03:45;100010.19;;;5.46;84.65
72950;BME280;64868;45.710;9.590;2022-12-18T01:06:13;100011.13;;;5.45;84.43
72950;BME280;64868;45.710;9.590;2022-12-18T01:08:39;100021.03;;;5.46;84.95
72950;BME280;64868;45.710;9.590;2022-12-18T01:11:09;100014.09;;;5.37;83.91
72950;BME280;64868;45.710;9.590;2022-12-18T01:13:35;100014.06;;;5.39;84.35
72950;BME280;64868;45.710;9.590;2022-12-18T01:16:02;100032.03;;;5.40;84.09
72950;BME280;64868;45.710;9.590;2022-12-18T01:18:30;100030.03;;;5.45;85.02
72950;BME280;64868;45.710;9.590;2022-12-18T01:20:57;100031.16;;;5.39;84.90
72950;BME280;64868;45.710;9.590;2022-12-18T01:23:27;100037.53;;;5.38;84.70
72950;BME280;64868;45.710;9.590;2022-12-18T01:25:57;100039.28;;;5.39;83.68
72950;BME280;64868;45.710;9.590;2022-12-18T01:28:24;100028.78;;;5.30;84.18
72950;BME280;64868;45.710;9.590;2022-12-18T01:30:50;100056.38;;;5.40;84.08
72950;BME280;64868;45.710;9.590;2022-12-18T01:33:15;100049.34;;;5.34;84.64
72950;BME280;64868;45.710;9.590;2022-12-18T01:35:42;100040.50;;;5.30;83.90
72950;BME280;64868;45.710;9.590;2022-12-18T01:38:08;100056.66;;;5.32;83.39
72950;BME280;64868;45.710;9.590;2022-12-18T01:40:33;100068.25;;;5.35;84.22
72950;BME280;64868;45.710;9.590;2022-12-18T01:42:59;100063.66;;;5.37;84.00
72950;BME280;64868;45.710;9.590;2022-12-18T01:45:28;100081.59;;;5.40;84.09
72950;BME280;64868;45.710;9.590;2022-12-18T01:47:57;100073.59;;;5.37;84.43
72950;BME280;64868;45.710;9.590;2022-12-18T01:50:32;100079.22;;;5.31;83.88
72950;BME280;64868;45.710;9.590;2022-12-18T01:53:03;100077.50;;;5.28;84.65
72950;BME280;64868;45.710;9.590;2022-12-18T01:55:35;100086.47;;;5.30;84.91
72950;BME280;64868;45.710;9.590;2022-12-18T01:58:03;100070.34;;;5.27;83.68
72950;BME280;64868;45.710;9.590;2022-12-18T02:00:29;100091.69;;;5.35;83.83
72950;BME280;64868;45.710;9.590;2022-12-18T02:02:55;100069.38;;;5.28;83.73
72950;BME280;64868;45.710;9.590;2022-12-18T02:05:40;100095.19;;;5.39;82.86
72950;BME280;64868;45.710;9.590;2022-12-18T02:08:10;100082.53;;;5.39;83.16
72950;BME280;64868;45.710;9.590;2022-12-18T02:11:18;100092.59;;;5.35;82.86
72950;BME280;64868;45.710;9.590;2022-12-18T02:13:57;100083.84;;;5.27;83.33
72950;BME280;64868;45.710;9.590;2022-12-18T02:16:52;100092.59;;;5.35;83.11
72950;BME280;64868;45.710;9.590;2022-12-18T02:22:44;100095.38;;;5.32;82.95
72950;BME280;64868;45.710;9.590;2022-12-18T02:28:00;100102.69;;;5.30;82.30
72950;BME280;64868;45.710;9.590;2022-12-18T02:30:31;100088.41;;;5.25;82.79
72950;BME280;64868;45.710;9.590;2022-12-18T02:32:59;100093.88;;;5.24;81.90
72950;BME280;64868;45.710;9.590;2022-12-18T02:35:29;100094.78;;;5.24;82.41
72950;BME280;64868;45.710;9.590;2022-12-18T02:37:55;100098.28;;;5.26;81.33
72950;BME280;64868;45.710;9.590;2022-12-18T02:40:22;100077.19;;;5.11;82.07
72950;BME280;64868;45.710;9.590;2022-12-18T02:42:48;100093.81;;;5.25;82.00
72950;BME280;64868;45.710;9.590;2022-12-18T02:45:14;100083.53;;;5.36;81.40
72950;BME280;64868;45.710;9.590;2022-12-18T02:47:42;100077.94;;;5.16;82.23
72950;BME280;64868;45.710;9.590;2022-12-18T03:00:58;100114.75;;;5.19;82.21
72950;BME280;64868;45.710;9.590;2022-12-18T03:06:14;100121.22;;;5.15;80.98
72950;BME280;64868;45.710;9.590;2022-12-18T03:08:47;100125.75;;;5.14;82.06
72950;BME280;64868;45.710;9.590;2022-12-18T03:11:15;100132.81;;;5.18;81.44
72950;BME280;64868;45.710;9.590;2022-12-18T03:13:47;100115.25;;;5.05;81.68
72950;BME280;64868;45.710;9.590;2022-12-18T03:16:26;100128.34;;;5.17;80.47
72950;BME280;64868;45.710;9.590;2022-12-18T03:19:01;100133.81;;;5.16;79.52
72950;BME280;64868;45.710;9.590;2022-12-18T03:21:41;100136.47;;;5.17;80.43
72950;BME280;64868;45.710;9.590;2022-12-18T03:24:09;100122.41;;;5.06;79.48
72950;BME280;64868;45.710;9.590;2022-12-18T03:26:41;100136.38;;;5.19;79.42
72950;BME280;64868;45.710;9.590;2022-12-18T03:29:12;100142.66;;;5.21;79.46
72950;BME280;64868;45.710;9.590;2022-12-18T03:31:41;100134.53;;;5.21;79.24
72950;BME280;64868;45.710;9.590;2022-12-18T03:34:19;100143.53;;;5.21;79.13
72950;BME280;64868;45.710;9.590;2022-12-18T03:36:47;100144.41;;;5.22;78.67
72950;BME280;64868;45.710;9.590;2022-12-18T03:39:12;100143.53;;;5.21;78.64
72950;BME280;64868;45.710;9.590;2022-12-18T03:44:48;100130.41;;;5.09;77.86
72950;BME280;64868;45.710;9.590;2022-12-18T03:55:03;100150.03;;;5.16;78.80
72950;BME280;64868;45.710;9.590;2022-12-18T03:57:31;100155.44;;;5.16;78.10
72950;BME280;64868;45.710;9.590;2022-12-18T04:00:07;100156.41;;;5.13;78.40
72950;BME280;64868;45.710;9.590;2022-12-18T04:02:38;100134.09;;;5.06;78.46
72950;BME280;64868;45.710;9.590;2022-12-18T04:05:05;100152.84;;;5.11;78.73
72950;BME280;64868;45.710;9.590;2022-12-18T04:07:32;100150.47;;;5.02;79.22
72950;BME280;64868;45.710;9.590;2022-12-18T04:10:01;100163.88;;;5.05;79.27
72950;BME280;64868;45.710;9.590;2022-12-18T04:12:28;100166.59;;;5.05;78.53
72950;BME280;64868;45.710;9.590;2022-12-18T04:14:54;100173.59;;;5.10;79.08
72950;BME280;64868;45.710;9.590;2022-12-18T04:17:20;100170.00;;;5.11;79.04
72950;BME280;64868;45.710;9.590;2022-12-18T04:19:45;100158.25;;;5.11;78.44
72950;BME280;64868;45.710;9.590;2022-12-18T04:22:11;100161.03;;;5.09;78.78
72950;BME280;64868;45.710;9.590;2022-12-18T04:24:36;100161.03;;;5.09;78.99
72950;BME280;64868;45.710;9.590;2022-12-18T04:27:02;100165.56;;;5.09;78.98
72950;BME280;64868;45.710;9.590;2022-12-18T04:29:27;100166.50;;;5.08;78.62
72950;BME280;64868;45.710;9.590;2022-12-18T04:31:53;100166.63;;;5.03;79.20
72950;BME280;64868;45.710;9.590;2022-12-18T04:34:20;100172.09;;;5.02;79.04
72950;BME280;64868;45.710;9.590;2022-12-18T04:36:45;100192.13;;;4.95;77.96
72950;BME280;64868;45.710;9.590;2022-12-18T04:39:11;100196.81;;;4.90;78.40
72950;BME280;64868;45.710;9.590;2022-12-18T04:41:36;100203.81;;;4.95;78.41
72950;BME280;64868;45.710;9.590;2022-12-18T04:44:02;100209.19;;;4.97;78.54
72950;BME280;64868;45.710;9.590;2022-12-18T04:46:27;100187.75;;;4.91;77.56
72950;BME280;64868;45.710;9.590;2022-12-18T04:48:53;100194.00;;;4.93;77.75
72950;BME280;64868;45.710;9.590;2022-12-18T04:51:18;100211.00;;;4.96;78.19
72950;BME280;64868;45.710;9.590;2022-12-18T04:53:44;100206.75;;;4.87;77.83
72950;BME280;64868;45.710;9.590;2022-12-18T04:56:12;100208.25;;;4.98;77.64
72950;BME280;64868;45.710;9.590;2022-12-18T04:58:39;100202.94;;;4.95;78.02
72950;BME280;64868;45.710;9.590;2022-12-18T05:01:05;100204.75;;;4.94;78.07
72950;BME280;64868;45.710;9.590;2022-12-18T05:03:31;100212.00;;;4.94;77.88
72950;BME280;64868;45.710;9.590;2022-12-18T05:05:56;100223.59;;;4.97;77.33
72950;BME280;64868;45.710;9.590;2022-12-18T05:08:23;100234.31;;;5.00;78.05
72950;BME280;64868;45.710;9.590;2022-12-18T05:10:48;100232.59;;;4.96;76.80
72950;BME280;64868;45.710;9.590;2022-12-18T05:13:13;100238.88;;;4.98;77.21
72950;BME280;64868;45.710;9.590;2022-12-18T05:15:39;100243.31;;;5.01;77.39
72950;BME280;64868;45.710;9.590;2022-12-18T05:18:04;100249.66;;;4.98;77.41
72950;BME280;64868;45.710;9.590;2022-12-18T05:20:30;100250.63;;;4.96;77.94
72950;BME280;64868;45.710;9.590;2022-12-18T05:22:56;100249.66;;;4.98;77.78
72950;BME280;64868;45.710;9.590;2022-12-18T05:25:22;100246.03;;;4.99;76.81
72950;BME280;64868;45.710;9.590;2022-12-18T05:27:48;100251.31;;;5.04;76.71
72950;BME280;64868;45.710;9.590;2022-12-18T05:30:14;100253.22;;;5.00;76.73
72950;BME280;64868;45.710;9.590;2022-12-18T05:32:40;100255.03;;;5.00;77.83
72950;BME280;64868;45.710;9.590;2022-12-18T05:35:07;100254.09;;;5.01;78.28
72950;BME280;64868;45.710;9.590;2022-12-18T05:37:33;100255.81;;;5.03;77.26
72950;BME280;64868;45.710;9.590;2022-12-18T05:39:59;100252.47;;;4.95;76.77
72950;BME280;64868;45.710;9.590;2022-12-18T05:42:24;100262.22;;;5.01;77.24
72950;BME280;64868;45.710;9.590;2022-12-18T05:44:50;100266.06;;;4.92;77.41
72950;BME280;64868;45.710;9.590;2022-12-18T05:47:15;100270.50;;;4.95;77.62
72950;BME280;64868;45.710;9.590;2022-12-18T05:49:40;100270.50;;;4.95;76.64
72950;BME280;64868;45.710;9.590;2022-12-18T05:52:06;100271.53;;;4.91;76.82
72950;BME280;64868;45.710;9.590;2022-12-18T05:54:31;100269.06;;;4.83;77.32
72950;BME280;64868;45.710;9.590;2022-12-18T05:56:57;100278.75;;;4.90;77.71
72950;BME280;64868;45.710;9.590;2022-12-18T05:59:23;100266.44;;;4.80;77.58
72950;BME280;64868;45.710;9.590;2022-12-18T06:01:49;100286.88;;;4.88;77.69
72950;BME280;64868;45.710;9.590;2022-12-18T06:04:14;100278.88;;;4.85;77.45
72950;BME280;64868;45.710;9.590;2022-12-18T06:06:40;100288.75;;;4.86;77.40
72950;BME280;64868;45.710;9.590;2022-12-18T06:09:05;100292.34;;;4.87;77.26
72950;BME280;64868;45.710;9.590;2022-12-18T06:11:34;100295.03;;;4.87;77.00
72950;BME280;64868;45.710;9.590;2022-12-18T06:14:00;100294.16;;;4.86;76.75
72950;BME280;64868;45.710;9.590;2022-12-18T06:16:27;100319.22;;;4.92;77.34
72950;BME280;64868;45.710;9.590;2022-12-18T06:18:55;100314.91;;;4.86;76.42
72950;BME280;64868;45.710;9.590;2022-12-18T06:21:21;100312.13;;;4.89;77.14
72950;BME280;64868;45.710;9.590;2022-12-18T06:23:47;100304.81;;;4.91;76.33
72950;BME280;64868;45.710;9.590;2022-12-18T06:26:12;100303.22;;;4.84;77.31
72950;BME280;64868;45.710;9.590;2022-12-18T06:28:38;100299.56;;;4.86;76.98
72950;BME280;64868;45.710;9.590;2022-12-18T06:31:04;100303.28;;;4.82;77.72
72950;BME280;64868;45.710;9.590;2022-12-18T06:33:30;100303.88;;;4.92;76.66
72950;BME280;64868;45.710;9.590;2022-12-18T06:36:05;100300.38;;;4.88;75.89
72950;BME280;64868;45.710;9.590;2022-12-18T06:38:32;100313.06;;;4.86;76.79
72950;BME280;64868;45.710;9.590;2022-12-18T06:40:58;100320.38;;;4.83;76.75
72950;BME280;64868;45.710;9.590;2022-12-18T06:43:24;100324.91;;;4.82;77.01
72950;BME280;64868;45.710;9.590;2022-12-18T06:45:49;100322.41;;;4.75;76.91
72950;BME280;64868;45.710;9.590;2022-12-18T06:48:19;100326.53;;;4.88;76.65
72950;BME280;64868;45.710;9.590;2022-12-18T06:50:45;100332.06;;;4.83;76.30
72950;BME280;64868;45.710;9.590;2022-12-18T06:53:10;100323.38;;;4.74;77.14
72950;BME280;64868;45.710;9.590;2022-12-18T06:55:35;100332.16;;;4.80;77.16
72950;BME280;64868;45.710;9.590;2022-12-18T06:58:01;100337.63;;;4.79;77.96
72950;BME280;64868;45.710;9.590;2022-12-18T07:00:26;100342.06;;;4.81;77.57
72950;BME280;64868;45.710;9.590;2022-12-18T07:02:52;100340.19;;;4.83;77.24
72950;BME280;64868;45.710;9.590;2022-12-18T07:05:17;100347.41;;;4.83;77.22
72950;BME280;64868;45.710;9.590;2022-12-18T07:07:42;100341.13;;;4.81;76.29
72950;BME280;64868;45.710;9.590;2022-12-18T07:10:08;100341.91;;;4.86;76.05
72950;BME280;64868;45.710;9.590;2022-12-18T07:12:34;100338.28;;;4.87;76.21
72950;BME280;64868;45.710;9.590;2022-12-18T07:14:59;100358.78;;;4.94;76.23
72950;BME280;64868;45.710;9.590;2022-12-18T07:17:24;100365.94;;;4.97;75.08
72950;BME280;64868;45.710;9.590;2022-12-18T07:19:50;100353.53;;;4.90;74.82
72950;BME280;64868;45.710;9.590;2022-12-18T07:22:15;100376.63;;;5.00;74.94
72950;BME280;64868;45.710;9.590;2022-12-18T07:24:41;100378.44;;;4.99;75.44
72950;BME280;64868;45.710;9.590;2022-12-18T07:27:06;100378.44;;;4.99;75.43
72950;BME280;64868;45.710;9.590;2022-12-18T07:29:32;100371.28;;;4.98;75.83
72950;BME280;64868;45.710;9.590;2022-12-18T07:31:57;100381.88;;;5.06;75.51
72950;BME280;64868;45.710;9.590;2022-12-18T07:34:23;100401.47;;;5.14;75.20
72950;BME280;64868;45.710;9.590;2022-12-18T07:36:48;100404.22;;;5.12;74.17
72950;BME280;64868;45.710;9.590;2022-12-18T07:39:13;100408.59;;;5.17;74.14
72950;BME280;64868;45.710;9.590;2022-12-18T07:41:39;100407.81;;;5.13;75.03
72950;BME280;64868;45.710;9.590;2022-12-18T07:44:11;100425.50;;;5.25;74.50
72950;BME280;64868;45.710;9.590;2022-12-18T07:46:37;100420.81;;;5.31;73.77
72950;BME280;64868;45.710;9.590;2022-12-18T07:49:02;100413.88;;;5.21;74.82
72950;BME280;64868;45.710;9.590;2022-12-18T07:51:27;100438.78;;;5.32;74.05
72950;BME280;64868;45.710;9.590;2022-12-18T07:53:53;100442.38;;;5.33;74.37
72950;BME280;64868;45.710;9.590;2022-12-18T07:56:19;100443.22;;;5.35;74.06
72950;BME280;64868;45.710;9.590;2022-12-18T07:58:45;100447.53;;;5.42;73.39
72950;BME280;64868;45.710;9.590;2022-12-18T08:01:11;100457.31;;;5.46;73.00
72950;BME280;64868;45.710;9.590;2022-12-18T08:03:38;100459.97;;;5.48;73.39
72950;BME280;64868;45.710;9.590;2022-12-18T08:06:05;100466.03;;;5.56;72.08
72950;BME280;64868;45.710;9.590;2022-12-18T08:08:32;100456.09;;;5.58;72.15
72950;BME280;64868;45.710;9.590;2022-12-18T08:10:58;100471.88;;;5.72;71.46
72950;BME280;64868;45.710;9.590;2022-12-18T08:13:24;100473.53;;;5.77;72.30
72950;BME280;64868;45.710;9.590;2022-12-18T08:16:04;100470.09;;;5.72;71.93
72950;BME280;64868;45.710;9.590;2022-12-18T08:18:34;100473.84;;;5.67;71.48
72950;BME280;64868;45.710;9.590;2022-12-18T08:21:13;100481.81;;;5.71;70.22
72950;BME280;64868;45.710;9.590;2022-12-18T08:23:40;100486.91;;;5.83;70.98
72950;BME280;64868;45.710;9.590;2022-12-18T08:26:06;100476.06;;;5.83;71.08
72950;BME280;64868;45.710;9.590;2022-12-18T08:28:31;100489.09;;;6.00;69.85
72950;BME280;64868;45.710;9.590;2022-12-18T08:30:57;100477.09;;;6.09;70.10
72950;BME280;64868;45.710;9.590;2022-12-18T08:33:22;100478.03;;;6.08;68.56
72950;BME280;64868;45.710;9.590;2022-12-18T08:35:48;100481.72;;;6.05;70.58
72950;BME280;64868;45.710;9.590;2022-12-18T08:38:13;100478.13;;;6.05;69.89
72950;BME280;64868;45.710;9.590;2022-12-18T08:40:39;100478.91;;;6.10;69.11
72950;BME280;64868;45.710;9.590;2022-12-18T08:43:04;100490.47;;;6.14;69.68
72950;BME280;64868;45.710;9.590;2022-12-18T08:45:48;100473.50;;;6.08;70.38
72950;BME280;64868;45.710;9.590;2022-12-18T08:48:14;100494.66;;;6.25;68.43
72950;BME280;64868;45.710;9.590;2022-12-18T08:50:40;100499.03;;;6.29;67.85
72950;BME280;64868;45.710;9.590;2022-12-18T08:53:05;100482.97;;;6.23;67.54
72950;BME280;64868;45.710;9.590;2022-12-18T08:55:31;100497.16;;;6.31;68.81
72950;BME280;64868;45.710;9.590;2022-12-18T08:57:56;100506.59;;;6.48;66.46
72950;BME280;64868;45.710;9.590;2022-12-18T09:00:22;100498.47;;;6.46;67.37
72950;BME280;64868;45.710;9.590;2022-12-18T09:02:47;100508.91;;;6.58;67.24
72950;BME280;64868;45.710;9.590;2022-12-18T09:05:13;100515.81;;;6.69;66.65
72950;BME280;64868;45.710;9.590;2022-12-18T09:07:38;100512.91;;;6.75;64.87
72950;BME280;64868;45.710;9.590;2022-12-18T09:10:04;100520.47;;;6.92;65.56
72950;BME280;64868;45.710;9.590;2022-12-18T09:12:30;100518.38;;;7.00;65.88
72950;BME280;64868;45.710;9.590;2022-12-18T09:14:55;100517.84;;;6.89;63.56
72950;BME280;64868;45.710;9.590;2022-12-18T09:17:21;100510.91;;;6.80;63.51
72950;BME280;64868;45.710;9.590;2022-12-18T09:19:47;100516.34;;;6.80;63.16
72950;BME280;64868;45.710;9.590;2022-12-18T09:22:12;100527.09;;;6.83;63.92
72950;BME280;64868;45.710;9.590;2022-12-18T09:24:37;100529.44;;;6.94;63.75
72950;BME280;64868;45.710;9.590;2022-12-18T09:27:03;100523.59;;;7.06;63.03
72950;BME280;64868;45.710;9.590;2022-12-18T09:29:28;100536.72;;;7.18;62.54
72950;BME280;64868;45.710;9.590;2022-12-18T09:31:54;100534.84;;;7.20;62.06
72950;BME280;64868;45.710;9.590;2022-12-18T09:34:19;100542.94;;;7.22;62.64
72950;BME280;64868;45.710;9.590;2022-12-18T09:36:47;100545.81;;;7.17;62.50
72950;BME280;64868;45.710;9.590;2022-12-18T09:39:12;100539.34;;;7.21;62.15
72950;BME280;64868;45.710;9.590;2022-12-18T09:41:50;100551.16;;;7.19;62.92
72950;BME280;64868;45.710;9.590;2022-12-18T09:44:28;100545.19;;;7.09;63.38
72950;BME280;64868;45.710;9.590;2022-12-18T09:47:03;100548.09;;;7.29;62.73
72950;BME280;64868;45.710;9.590;2022-12-18T09:49:34;100551.72;;;7.55;61.68
72950;BME280;64868;45.710;9.590;2022-12-18T09:52:15;100540.56;;;7.63;61.55
72950;BME280;64868;45.710;9.590;2022-12-18T09:54:42;100526.81;;;7.67;61.94
72950;BME280;64868;45.710;9.590;2022-12-18T09:57:15;100519.09;;;7.80;60.67
72950;BME280;64868;45.710;9.590;2022-12-18T09:59:44;100529.16;;;8.01;60.25
72950;BME280;64868;45.710;9.590;2022-12-18T10:02:17;100496.63;;;8.00;60.75
72950;BME280;64868;45.710;9.590;2022-12-18T10:04:46;100505.59;;;8.02;60.86
72950;BME280;64868;45.710;9.590;2022-12-18T10:07:24;100514.31;;;8.10;61.34
72950;BME280;64868;45.710;9.590;2022-12-18T10:10:07;100508.00;;;8.10;59.65
72950;BME280;64868;45.710;9.590;2022-12-18T10:15:40;100523.91;;;7.97;60.24
72950;BME280;64868;45.710;9.590;2022-12-18T10:21:09;100526.88;;;8.36;61.01
72950;BME280;64868;45.710;9.590;2022-12-18T10:23:52;100530.97;;;8.48;59.27
72950;BME280;64868;45.710;9.590;2022-12-18T10:26:24;100532.78;;;8.49;59.23
72950;BME280;64868;45.710;9.590;2022-12-18T10:28:51;100524.16;;;8.38;58.95
72950;BME280;64868;45.710;9.590;2022-12-18T10:31:19;100522.06;;;8.44;59.12
72950;BME280;64868;45.710;9.590;2022-12-18T10:33:45;100528.97;;;8.53;58.85
72950;BME280;64868;45.710;9.590;2022-12-18T10:36:11;100527.75;;;8.82;58.42
72950;BME280;64868;45.710;9.590;2022-12-18T10:38:37;100527.88;;;9.01;58.01
72950;BME280;64868;45.710;9.590;2022-12-18T10:41:24;100522.00;;;9.53;56.26
72950;BME280;64868;45.710;9.590;2022-12-18T10:44:11;100510.22;;;10.87;52.38
72950;BME280;64868;45.710;9.590;2022-12-18T10:46:37;100511.91;;;11.07;51.85
72950;BME280;64868;45.710;9.590;2022-12-18T10:49:03;100512.66;;;11.11;52.23
72950;BME280;64868;45.710;9.590;2022-12-18T10:51:31;100520.88;;;10.92;52.72
72950;BME280;64868;45.710;9.590;2022-12-18T10:54:16;100511.91;;;11.25;52.43
72950;BME280;64868;45.710;9.590;2022-12-18T10:56:43;100501.06;;;14.51;44.46
72950;BME280;64868;45.710;9.590;2022-12-18T10:59:11;100509.53;;;15.69;40.67
72950;BME280;64868;45.710;9.590;2022-12-18T11:02:07;100518.28;;;18.30;36.35
72950;BME280;64868;45.710;9.590;2022-12-18T11:04:51;100510.06;;;19.71;32.05
72950;BME280;64868;45.710;9.590;2022-12-18T11:07:17;100520.06;;;20.56;30.48
72950;BME280;64868;45.710;9.590;2022-12-18T11:09:42;100526.97;;;20.40;28.76
72950;BME280;64868;45.710;9.590;2022-12-18T11:12:16;100514.69;;;21.04;29.25
72950;BME280;64868;45.710;9.590;2022-12-18T11:14:46;100516.41;;;20.96;28.49
72950;BME280;64868;45.710;9.590;2022-12-18T11:17:20;100513.97;;;19.36;30.77
72950;BME280;64868;45.710;9.590;2022-12-18T11:19:56;100523.13;;;18.93;32.10
72950;BME280;64868;45.710;9.590;2022-12-18T11:22:30;100517.25;;;18.42;32.63
72950;BME280;64868;45.710;9.590;2022-12-18T11:27:25;100527.91;;;19.03;30.85
72950;BME280;64868;45.710;9.590;2022-12-18T11:29:51;100514.38;;;18.43;32.07
72950;BME280;64868;45.710;9.590;2022-12-18T11:32:37;100519.44;;;17.81;33.38
72950;BME280;64868;45.710;9.590;2022-12-18T11:40:48;100521.56;;;10.78;47.90
72950;BME280;64868;45.710;9.590;2022-12-18T11:43:30;100519.09;;;9.57;51.94
72950;BME280;64868;45.710;9.590;2022-12-18T11:48:43;100506.28;;;9.18;53.04
72950;BME280;64868;45.710;9.590;2022-12-18T11:51:25;100496.97;;;8.82;52.55
72950;BME280;64868;45.710;9.590;2022-12-18T11:53:52;100507.72;;;8.41;53.74
72950;BME280;64868;45.710;9.590;2022-12-18T11:56:30;100500.94;;;8.05;52.55
72950;BME280;64868;45.710;9.590;2022-12-18T12:08:11;100474.50;;;8.33;52.19
72950;BME280;64868;45.710;9.590;2022-12-18T12:11:07;100480.28;;;8.47;52.16
72950;BME280;64868;45.710;9.590;2022-12-18T12:16:24;100472.81;;;8.07;51.59
72950;BME280;64868;45.710;9.590;2022-12-18T12:30:00;100474.56;;;7.86;55.54
72950;BME280;64868;45.710;9.590;2022-12-18T12:40:36;100460.25;;;8.04;57.68
72950;BME280;64868;45.710;9.590;2022-12-18T12:43:20;100442.19;;;8.03;59.44
72950;BME280;64868;45.710;9.590;2022-12-18T12:46:06;100453.63;;;7.88;60.50
72950;BME280;64868;45.710;9.590;2022-12-18T12:53:54;100463.50;;;7.90;62.79
72950;BME280;64868;45.710;9.590;2022-12-18T12:56:22;100453.22;;;7.98;61.53
72950;BME280;64868;45.710;9.590;2022-12-18T12:58:55;100457.47;;;8.05;62.86
72950;BME280;64868;45.710;9.590;2022-12-18T13:01:35;100440.56;;;8.21;59.78
72950;BME280;64868;45.710;9.590;2022-12-18T13:06:40;100456.78;;;8.46;58.76
72950;BME280;64868;45.710;9.590;2022-12-18T13:09:07;100460.34;;;8.24;56.77
72950;BME280;64868;45.710;9.590;2022-12-18T13:11:45;100462.56;;;8.15;56.94
72950;BME280;64868;45.710;9.590;2022-12-18T13:14:33;100448.03;;;8.16;56.88
72950;BME280;64868;45.710;9.590;2022-12-18T13:17:27;100442.44;;;8.42;57.67
72950;BME280;64868;45.710;9.590;2022-12-18T13:20:07;100439.53;;;8.47;59.25
72950;BME280;64868;45.710;9.590;2022-12-18T13:22:39;100438.00;;;8.40;60.03
72950;BME280;64868;45.710;9.590;2022-12-18T13:25:35;100445.03;;;8.45;60.74
72950;BME280;64868;45.710;9.590;2022-12-18T13:28:10;100444.47;;;8.14;60.71
72950;BME280;64868;45.710;9.590;2022-12-18T13:30:45;100433.09;;;8.04;61.71
72950;BME280;64868;45.710;9.590;2022-12-18T13:35:41;100437.72;;;7.78;63.28
72950;BME280;64868;45.710;9.590;2022-12-18T13:45:59;100447.84;;;8.20;61.74
72950;BME280;64868;45.710;9.590;2022-12-18T13:48:27;100431.16;;;8.08;62.46
72950;BME280;64868;45.710;9.590;2022-12-18T13:51:07;100435.94;;;8.01;63.21
72950;BME280;64868;45.710;9.590;2022-12-18T13:53:39;100431.91;;;7.66;64.52
72950;BME280;64868;45.710;9.590;2022-12-18T13:56:08;100444.16;;;7.52;64.81
72950;BME280;64868;45.710;9.590;2022-12-18T13:58:34;100425.50;;;7.43;65.99
72950;BME280;64868;45.710;9.590;2022-12-18T14:00:59;100439.88;;;7.45;66.38
72950;BME280;64868;45.710;9.590;2022-12-18T14:03:28;100427.75;;;7.55;64.21
72950;BME280;64868;45.710;9.590;2022-12-18T14:06:03;100443.44;;;7.71;66.26
72950;BME280;64868;45.710;9.590;2022-12-18T14:08:38;100438.31;;;7.87;64.10
72950;BME280;64868;45.710;9.590;2022-12-18T14:11:05;100441.13;;;7.84;64.19
72950;BME280;64868;45.710;9.590;2022-12-18T14:13:40;100429.00;;;7.70;64.88
72950;BME280;64868;45.710;9.590;2022-12-18T14:16:06;100448.41;;;7.83;65.23
72950;BME280;64868;45.710;9.590;2022-12-18T14:18:46;100437.38;;;7.64;65.38
72950;BME280;64868;45.710;9.590;2022-12-18T14:21:25;100446.38;;;7.65;64.13
72950;BME280;64868;45.710;9.590;2022-12-18T14:24:11;100459.81;;;7.69;64.22
72950;BME280;64868;45.710;9.590;2022-12-18T14:26:37;100443.03;;;7.58;65.81
72950;BME280;64868;45.710;9.590;2022-12-18T14:29:22;100458.38;;;7.59;64.67
72950;BME280;64868;45.710;9.590;2022-12-18T14:32:16;100448.69;;;7.52;66.40
72950;BME280;64868;45.710;9.590;2022-12-18T14:34:46;100448.41;;;7.35;67.29
72950;BME280;64868;45.710;9.590;2022-12-18T14:37:14;100445.66;;;7.36;66.57
72950;BME280;64868;45.710;9.590;2022-12-18T14:39:40;100438.75;;;7.27;66.09
72950;BME280;64868;45.710;9.590;2022-12-18T14:42:08;100453.22;;;7.28;66.01
72950;BME280;64868;45.710;9.590;2022-12-18T14:44:35;100460.31;;;7.30;66.03
72950;BME280;64868;45.710;9.590;2022-12-18T14:47:00;100457.69;;;7.29;66.76
72950;BME280;64868;45.710;9.590;2022-12-18T14:49:29;100455.97;;;7.26;67.22